Time;durP1;ratioP1;P1;durP2;ratioP2;P2;SDS_P1;SDS_P2;PMS_P1;PMS_P2;Temp;Humidity;BMP_temperature;BMP_pressure;BME280_temperature;BME280_humidity;BME280_pressure;Samples;Min_cycle;Max_cycle;Signal;HPM_P1;HPM_P2
2023/04/12 00:02:11;;;;;;;10.73;2.40;;;10.40;99.90;;;;;;5073086;28;20082;-50
2023/04/12 00:04:38;;;;;;;6.20;1.50;;;10.30;99.90;;;;;;5072858;28;20032;-50
2023/04/12 00:07:04;;;;;;;7.57;1.70;;;10.30;99.90;;;;;;5073029;28;20028;-46
2023/04/12 00:09:31;;;;;;;8.50;1.53;;;10.40;99.90;;;;;;5073283;28;20025;-49
2023/04/12 00:11:58;;;;;;;7.67;1.73;;;10.30;99.90;;;;;;5073042;28;20025;-47
2023/04/12 00:14:27;;;;;;;6.47;1.27;;;10.20;99.90;;;;;;5072906;28;20028;-48
2023/04/12 00:16:52;;;;;;;6.82;1.42;;;10.10;99.90;;;;;;5072981;28;20105;-48
2023/04/12 00:19:18;;;;;;;8.83;1.30;;;9.90;99.90;;;;;;5072717;28;20477;-46
2023/04/12 00:21:44;;;;;;;7.57;1.50;;;9.80;99.90;;;;;;5072859;28;20036;-47
2023/04/12 00:24:10;;;;;;;6.77;1.73;;;9.70;99.90;;;;;;5072722;28;20074;-48
2023/04/12 00:26:36;;;;;;;4.87;1.30;;;9.60;99.90;;;;;;5072674;28;20078;-47
2023/04/12 00:29:01;;;;;;;6.53;1.70;;;9.50;99.90;;;;;;5072640;28;20107;-49
2023/04/12 00:31:28;;;;;;;6.77;2.23;;;9.50;99.90;;;;;;5071791;28;20036;-52
2023/04/12 00:33:54;;;;;;;6.70;1.60;;;9.40;99.90;;;;;;5072424;28;20024;-49
2023/04/12 00:36:21;;;;;;;9.53;1.53;;;9.40;99.90;;;;;;5072439;28;20506;-48
2023/04/12 00:38:46;;;;;;;7.27;1.30;;;9.40;99.90;;;;;;5071400;28;20029;-47
2023/04/12 00:41:13;;;;;;;6.20;1.50;;;9.40;99.90;;;;;;5072470;28;20029;-47
2023/04/12 00:43:42;;;;;;;4.27;1.10;;;9.40;99.90;;;;;;5070917;28;20032;-52
2023/04/12 00:46:08;;;;;;;5.85;1.27;;;9.30;99.90;;;;;;5072612;28;20476;-47
2023/04/12 00:48:36;;;;;;;8.57;1.53;;;9.30;99.90;;;;;;5072085;28;20028;-47
2023/04/12 00:51:03;;;;;;;7.67;1.77;;;9.30;99.90;;;;;;5072562;28;20032;-51
2023/04/12 00:53:30;;;;;;;8.23;1.50;;;9.20;99.90;;;;;;5072048;28;20043;-49
2023/04/12 00:55:57;;;;;;;8.07;1.70;;;9.20;99.90;;;;;;5072277;28;20028;-52
2023/04/12 00:58:23;;;;;;;4.80;1.60;;;9.20;99.90;;;;;;5072120;28;20111;-48
2023/04/12 01:00:51;;;;;;;7.53;1.80;;;9.20;99.90;;;;;;5072086;28;20028;-51
2023/04/12 01:03:26;;;;;;;8.13;1.57;;;9.10;99.90;;;;;;5072036;28;20060;-53
2023/04/12 01:06:28;;;;;;;5.97;1.57;;;9.20;99.90;;;;;;5072258;28;20029;-48
2023/04/12 01:09:35;;;;;;;7.40;1.67;;;9.10;99.90;;;;;;5059059;28;20037;-54
2023/04/12 01:12:24;;;;;;;11.00;1.50;;;9.00;99.90;;;;;;5070608;28;20082;-49
2023/04/12 01:15:08;;;;;;;7.90;1.80;;;9.00;99.90;;;;;;5070356;28;20039;-48
2023/04/12 01:17:41;;;;;;;6.73;1.90;;;8.90;99.90;;;;;;5053791;28;20025;-52
2023/04/12 01:20:20;;;;;;;6.57;1.60;;;8.80;99.90;;;;;;5071716;28;20115;-49
2023/04/12 01:22:58;;;;;;;13.88;2.13;;;8.80;99.90;;;;;;5061992;22;20273;-54
2023/04/12 01:25:46;;;;;;;13.63;2.23;;;8.80;99.90;;;;;;5031101;28;20432;-55
2023/04/12 01:28:18;;;;;;;11.43;2.22;;;8.80;99.90;;;;;;5003130;28;20527;-52
2023/04/12 01:30:48;;;;;;;10.13;2.10;;;8.80;99.90;;;;;;5030204;28;20167;-56
2023/04/12 01:33:16;;;;;;;9.00;1.80;;;8.80;99.90;;;;;;5030173;28;20516;-55
2023/04/12 01:35:43;;;;;;;9.33;1.90;;;8.70;99.90;;;;;;5030018;28;20439;-54
2023/04/12 01:38:09;;;;;;;7.53;1.70;;;8.70;99.90;;;;;;5031282;28;20505;-54
2023/04/12 01:40:39;;;;;;;8.40;2.27;;;8.70;99.90;;;;;;5029909;28;20022;-55
2023/04/12 01:43:10;;;;;;;8.52;1.75;;;8.60;99.90;;;;;;5031355;28;20089;-54
2023/04/12 01:45:37;;;;;;;9.60;2.00;;;8.60;99.90;;;;;;5029684;28;20041;-54
2023/04/12 01:48:07;;;;;;;10.83;2.00;;;8.60;99.90;;;;;;5029886;28;20441;-55
2023/04/12 01:50:51;;;;;;;10.23;2.10;;;8.50;99.90;;;;;;5031239;28;20033;-53
2023/04/12 01:53:18;;;;;;;10.37;2.30;;;8.50;99.90;;;;;;5029782;28;20116;-54
2023/04/12 01:55:45;;;;;;;8.43;2.40;;;8.40;99.90;;;;;;5029746;28;20120;-54
2023/04/12 01:58:14;;;;;;;7.83;2.50;;;8.40;99.90;;;;;;5030893;28;20041;-53
2023/04/12 02:00:43;;;;;;;9.82;2.08;;;8.40;99.90;;;;;;5029604;28;20022;-54
2023/04/12 02:03:09;;;;;;;8.60;2.23;;;8.30;99.90;;;;;;5030957;28;20032;-52
2023/04/12 02:05:35;;;;;;;10.80;2.37;;;8.30;99.90;;;;;;5030639;28;20045;-53
2023/04/12 02:08:02;;;;;;;8.83;1.90;;;8.30;99.90;;;;;;5029283;28;20128;-55
2023/04/12 02:10:35;;;;;;;10.27;2.40;;;8.30;99.90;;;;;;5029715;28;20458;-53
2023/04/12 02:13:01;;;;;;;17.37;3.57;;;8.20;99.90;;;;;;5029630;28;20204;-55
2023/04/12 02:15:29;;;;;;;8.60;1.83;;;8.20;99.90;;;;;;5030583;28;20099;-55
2023/04/12 02:17:58;;;;;;;5.70;2.00;;;8.10;99.90;;;;;;5029185;28;20481;-54
2023/04/12 02:20:24;;;;;;;8.30;2.20;;;8.20;99.90;;;;;;5031229;28;20052;-51
2023/04/12 02:22:50;;;;;;;7.80;1.70;;;8.10;99.90;;;;;;5029260;28;20456;-53
2023/04/12 02:25:16;;;;;;;7.83;1.97;;;8.10;99.90;;;;;;5030564;28;20506;-54
2023/04/12 02:27:47;;;;;;;6.77;2.20;;;8.10;99.90;;;;;;5030513;28;20551;-52
2023/04/12 02:30:14;;;;;;;9.03;1.90;;;8.10;99.90;;;;;;5030639;28;20033;-53
2023/04/12 02:32:44;;;;;;;7.67;1.87;;;8.10;99.90;;;;;;5029275;28;20286;-54
2023/04/12 02:35:17;;;;;;;6.53;1.83;;;8.10;99.90;;;;;;5029323;28;20335;-54
2023/04/12 02:37:46;;;;;;;5.70;1.53;;;8.10;99.90;;;;;;5029019;28;20026;-56
2023/04/12 02:40:13;;;;;;;11.70;1.97;;;8.10;99.90;;;;;;5030513;28;20533;-53
2023/04/12 02:42:39;;;;;;;10.90;2.03;;;8.10;99.90;;;;;;5029242;28;20092;-54
2023/04/12 02:45:05;;;;;;;8.70;1.70;;;8.10;99.90;;;;;;5028864;28;20040;-54
2023/04/12 02:47:31;;;;;;;9.73;2.33;;;8.10;99.90;;;;;;5028899;28;20475;-49
2023/04/12 02:49:59;;;;;;;7.03;1.53;;;8.10;99.90;;;;;;5028985;28;20029;-55
2023/04/12 02:52:28;;;;;;;8.87;1.67;;;8.10;99.90;;;;;;5029007;28;20556;-54
2023/04/12 02:55:07;;;;;;;5.47;1.20;;;8.00;99.90;;;;;;5032072;28;20063;-53
2023/04/12 02:57:33;;;;;;;8.23;1.70;;;8.00;99.90;;;;;;5032820;28;20035;-55
2023/04/12 03:00:00;;;;;;;7.77;1.83;;;8.00;99.90;;;;;;5032994;28;20033;-52
2023/04/12 03:02:50;;;;;;;5.37;1.60;;;8.00;99.90;;;;;;5033845;28;20409;-53
2023/04/12 03:05:27;;;;;;;6.13;1.50;;;7.90;99.90;;;;;;5032676;28;20030;-52
2023/04/12 03:07:54;;;;;;;7.17;1.67;;;7.90;99.90;;;;;;5032522;28;20033;-52
2023/04/12 03:10:25;;;;;;;6.33;1.40;;;7.90;99.90;;;;;;5032853;28;20026;-52
2023/04/12 03:13:10;;;;;;;7.47;1.37;;;7.90;99.90;;;;;;5034234;28;20056;-56
2023/04/12 03:15:38;;;;;;;8.18;2.22;;;7.90;99.90;;;;;;5032544;28;20037;-56
2023/04/12 03:18:05;;;;;;;7.60;1.83;;;7.90;99.90;;;;;;5032968;28;20060;-53
2023/04/12 03:20:43;;;;;;;7.80;1.30;;;7.80;99.90;;;;;;5032570;28;20120;-53
2023/04/12 03:23:09;;;;;;;5.53;1.95;;;7.80;99.90;;;;;;5032472;28;20029;-54
2023/04/12 03:25:40;;;;;;;6.57;1.20;;;7.90;99.90;;;;;;5032264;28;20087;-55
2023/04/12 03:28:24;;;;;;;3.93;1.97;;;7.90;99.90;;;;;;5033632;28;20040;-54
2023/04/12 03:30:51;;;;;;;3.47;0.90;;;7.90;99.90;;;;;;5033801;28;20102;-52
2023/04/12 03:33:37;;;;;;;3.93;1.43;;;7.90;99.90;;;;;;5032285;28;20029;-54
2023/04/12 03:36:06;;;;;;;7.80;1.77;;;7.90;99.90;;;;;;5032487;28;20045;-52
2023/04/12 03:38:31;;;;;;;7.00;1.40;;;7.90;99.90;;;;;;5032039;28;20429;-52
2023/04/12 03:40:58;;;;;;;5.07;1.60;;;7.90;99.90;;;;;;5032332;28;20044;-56
2023/04/12 03:43:34;;;;;;;3.40;1.30;;;7.90;99.90;;;;;;5031921;28;20034;-54
2023/04/12 03:46:04;;;;;;;7.77;2.30;;;8.00;99.90;;;;;;5032297;28;20500;-54
2023/04/12 03:48:30;;;;;;;6.43;1.40;;;8.00;99.90;;;;;;5031853;28;20026;-56
2023/04/12 03:50:58;;;;;;;4.47;1.13;;;8.00;99.90;;;;;;5032071;28;20037;-55
2023/04/12 03:53:26;;;;;;;4.20;1.60;;;8.10;99.90;;;;;;5031724;28;20052;-54
2023/04/12 03:55:53;;;;;;;6.00;1.30;;;8.10;99.90;;;;;;5031906;28;20026;-54
2023/04/12 03:58:21;;;;;;;4.30;1.27;;;8.10;99.90;;;;;;5031708;28;20448;-55
2023/04/12 04:00:47;;;;;;;4.27;0.97;;;8.10;99.90;;;;;;5031842;28;20065;-54
2023/04/12 04:03:15;;;;;;;2.70;0.60;;;8.10;99.90;;;;;;5031809;28;20133;-56
2023/04/12 04:05:44;;;;;;;4.50;1.13;;;8.10;99.90;;;;;;5030593;28;20421;-55
2023/04/12 04:08:12;;;;;;;6.07;1.27;;;8.10;99.90;;;;;;5031485;28;20095;-52
2023/04/12 04:10:59;;;;;;;2.50;0.90;;;8.10;99.90;;;;;;5032604;28;20401;-53
2023/04/12 04:13:30;;;;;;;4.97;1.30;;;8.10;99.90;;;;;;5031472;28;20041;-54
2023/04/12 04:16:09;;;;;;;3.63;0.80;;;8.10;99.90;;;;;;5031580;28;20034;-50
2023/04/12 04:18:36;;;;;;;3.83;1.17;;;8.10;99.90;;;;;;5031527;28;20029;-52
2023/04/12 04:21:01;;;;;;;6.13;1.20;;;8.20;99.90;;;;;;5031621;28;20025;-55
2023/04/12 04:23:37;;;;;;;4.25;1.40;;;8.20;99.90;;;;;;5031108;28;20086;-55
2023/04/12 04:26:09;;;;;;;4.20;1.13;;;8.20;99.90;;;;;;5032772;28;20478;-53
2023/04/12 04:28:43;;;;;;;3.83;1.10;;;8.10;99.90;;;;;;5031115;28;20108;-54
2023/04/12 04:31:12;;;;;;;3.80;1.00;;;8.10;99.90;;;;;;5031521;28;20125;-53
2023/04/12 04:33:40;;;;;;;5.55;1.50;;;8.20;99.90;;;;;;5031005;28;20124;-52
2023/04/12 04:36:08;;;;;;;6.07;1.20;;;8.10;99.90;;;;;;5031315;28;20068;-55
2023/04/12 04:38:35;;;;;;;3.17;1.10;;;8.10;99.90;;;;;;5030979;28;20044;-52
2023/04/12 04:41:09;;;;;;;3.90;1.00;;;8.10;99.90;;;;;;5031197;28;20032;-48
2023/04/12 04:43:59;;;;;;;5.03;1.53;;;8.10;99.90;;;;;;5030835;28;20533;-51
2023/04/12 04:46:29;;;;;;;4.17;1.03;;;8.10;99.90;;;;;;5031027;28;20416;-53
2023/04/12 04:48:55;;;;;;;3.93;1.30;;;8.10;99.90;;;;;;5031040;28;20053;-52
2023/04/12 04:51:21;;;;;;;5.93;1.50;;;8.10;99.90;;;;;;5032600;28;20355;-52
2023/04/12 04:53:47;;;;;;;5.53;1.10;;;8.10;99.90;;;;;;5032047;28;20045;-52
2023/04/12 04:56:15;;;;;;;2.80;0.83;;;8.10;99.90;;;;;;5030721;28;20030;-54
2023/04/12 04:58:42;;;;;;;4.73;2.13;;;8.10;99.90;;;;;;5030622;28;20033;-55
2023/04/12 05:01:11;;;;;;;5.50;1.63;;;8.10;99.90;;;;;;5030798;28;20025;-53
2023/04/12 05:03:39;;;;;;;4.78;1.63;;;8.10;99.90;;;;;;5030303;28;20434;-52
2023/04/12 05:06:07;;;;;;;5.28;1.40;;;8.00;99.90;;;;;;5030824;28;20066;-52
2023/04/12 05:08:33;;;;;;;6.00;1.23;;;7.90;99.90;;;;;;5030411;28;20025;-51
2023/04/12 05:10:59;;;;;;;4.20;1.33;;;7.90;99.90;;;;;;5030372;28;20547;-55
2023/04/12 05:13:28;;;;;;;8.63;1.73;;;7.90;99.90;;;;;;5030256;28;20399;-54
2023/04/12 05:15:54;;;;;;;6.20;1.27;;;7.80;99.90;;;;;;5030426;28;20543;-52
2023/04/12 05:18:20;;;;;;;5.70;1.40;;;7.80;99.90;;;;;;5029986;28;20029;-51
2023/04/12 05:20:48;;;;;;;4.33;1.27;;;7.70;99.90;;;;;;5030341;28;20038;-55
2023/04/12 05:23:14;;;;;;;6.37;1.90;;;7.70;99.90;;;;;;5030233;28;20026;-54
2023/04/12 05:25:47;;;;;;;5.33;1.80;;;7.70;99.90;;;;;;5029934;28;20026;-53
2023/04/12 05:28:15;;;;;;;4.67;1.60;;;7.60;99.90;;;;;;5030217;28;20140;-54
2023/04/12 05:30:41;;;;;;;6.23;1.70;;;7.70;99.90;;;;;;5030374;28;20366;-54
2023/04/12 05:33:09;;;;;;;6.47;2.10;;;7.60;99.90;;;;;;5030255;28;20498;-52
2023/04/12 05:35:40;;;;;;;4.60;2.00;;;7.50;99.90;;;;;;5029908;28;20505;-53
2023/04/12 05:38:06;;;;;;;5.57;1.63;;;7.60;99.90;;;;;;5031061;28;20025;-53
2023/04/12 05:40:32;;;;;;;4.43;1.90;;;7.50;99.90;;;;;;5030035;28;20029;-52
2023/04/12 05:42:58;;;;;;;7.17;2.30;;;7.50;99.90;;;;;;5029972;28;20042;-52
2023/04/12 05:45:25;;;;;;;5.70;2.17;;;7.50;99.90;;;;;;5029724;28;20029;-54
2023/04/12 05:47:53;;;;;;;5.93;2.30;;;7.50;99.90;;;;;;5029722;28;20021;-54
2023/04/12 05:50:19;;;;;;;6.67;1.70;;;7.60;99.90;;;;;;5029801;28;20029;-53
2023/04/12 05:52:47;;;;;;;7.23;2.27;;;7.50;99.90;;;;;;5029641;28;20494;-53
2023/04/12 05:55:15;;;;;;;4.70;2.17;;;7.60;99.90;;;;;;5029576;28;20167;-52
2023/04/12 05:57:41;;;;;;;9.53;4.33;;;7.60;99.90;;;;;;5029374;28;20489;-54
2023/04/12 06:00:17;;;;;;;18.67;9.07;;;7.60;99.90;;;;;;5029492;28;20418;-53
2023/04/12 06:02:46;;;;;;;6.00;2.27;;;7.70;99.90;;;;;;5029714;28;20059;-53
2023/04/12 06:05:13;;;;;;;8.63;2.40;;;7.70;99.90;;;;;;5029240;28;20460;-52
2023/04/12 06:07:41;;;;;;;5.83;2.10;;;7.70;99.90;;;;;;5029409;28;20037;-51
2023/04/12 06:10:07;;;;;;;6.77;1.90;;;7.70;99.90;;;;;;5029354;28;20036;-52
2023/04/12 06:12:33;;;;;;;4.37;1.97;;;7.70;99.90;;;;;;5029435;28;20478;-54
2023/04/12 06:14:59;;;;;;;4.53;2.30;;;7.70;99.90;;;;;;5030584;28;20087;-53
2023/04/12 06:17:25;;;;;;;7.90;2.30;;;7.70;99.90;;;;;;5030551;28;20030;-54
2023/04/12 06:19:51;;;;;;;7.90;2.20;;;7.70;99.90;;;;;;5029156;28;20121;-53
2023/04/12 06:22:17;;;;;;;5.23;2.33;;;7.70;99.90;;;;;;5029124;28;20120;-51
2023/04/12 06:24:43;;;;;;;7.00;2.30;;;7.70;99.90;;;;;;5030446;28;20026;-54
2023/04/12 06:27:10;;;;;;;4.77;2.30;;;7.70;99.90;;;;;;5029047;28;20441;-53
2023/04/12 06:29:36;;;;;;;4.93;1.83;;;7.80;99.90;;;;;;5028475;28;20076;-53
2023/04/12 06:32:03;;;;;;;4.23;2.00;;;7.80;99.90;;;;;;5030511;28;20033;-51
2023/04/12 06:34:29;;;;;;;4.80;1.90;;;7.80;99.90;;;;;;5028851;28;20033;-55
2023/04/12 06:36:58;;;;;;;4.53;2.00;;;7.70;99.90;;;;;;5029290;28;20351;-53
2023/04/12 06:39:24;;;;;;;7.10;2.30;;;7.80;99.90;;;;;;5030498;28;20030;-53
2023/04/12 06:41:50;;;;;;;8.37;2.03;;;7.80;99.90;;;;;;5030494;28;20112;-53
2023/04/12 06:44:18;;;;;;;6.18;2.42;;;7.90;99.90;;;;;;5028860;28;20563;-51
2023/04/12 06:46:44;;;;;;;3.63;1.57;;;7.90;99.90;;;;;;5030165;28;20030;-52
2023/04/12 06:49:10;;;;;;;5.87;1.97;;;7.90;99.90;;;;;;5030468;28;20029;-56
2023/04/12 06:51:35;;;;;;;6.17;2.10;;;7.90;99.90;;;;;;5030321;28;20394;-53
2023/04/12 06:54:01;;;;;;;4.13;1.50;;;8.00;99.90;;;;;;5030268;28;20030;-51
2023/04/12 06:56:27;;;;;;;3.43;1.73;;;8.00;99.90;;;;;;5030401;28;20114;-52
2023/04/12 06:58:52;;;;;;;7.10;2.00;;;8.00;99.90;;;;;;5030385;28;20394;-53
2023/04/12 07:01:18;;;;;;;4.67;1.80;;;8.00;99.90;;;;;;5030253;28;20031;-55
2023/04/12 07:03:44;;;;;;;6.47;1.90;;;7.90;99.90;;;;;;5029919;28;20541;-54
2023/04/12 07:06:10;;;;;;;6.83;2.17;;;8.00;99.90;;;;;;5030448;28;20018;-54
2023/04/12 07:08:36;;;;;;;4.40;1.67;;;8.00;99.90;;;;;;5030017;28;20116;-53
2023/04/12 07:11:02;;;;;;;4.43;2.03;;;8.00;99.90;;;;;;5030346;28;20041;-53
2023/04/12 07:13:29;;;;;;;4.27;1.90;;;8.00;99.90;;;;;;5030139;28;20082;-53
2023/04/12 07:15:55;;;;;;;2.83;1.37;;;8.00;99.90;;;;;;5030135;28;20117;-54
2023/04/12 07:18:21;;;;;;;5.37;2.20;;;8.00;99.90;;;;;;5030029;28;20053;-52
2023/04/12 07:20:53;;;;;;;5.77;1.57;;;8.10;99.90;;;;;;5030146;28;20486;-53
2023/04/12 07:23:19;;;;;;;5.27;1.97;;;8.10;99.90;;;;;;5066945;22;20087;-48
2023/04/12 07:25:45;;;;;;;3.53;1.83;;;8.10;99.90;;;;;;5069820;28;20471;-53
2023/04/12 07:28:10;;;;;;;6.10;1.90;;;8.20;99.90;;;;;;5069821;28;20078;-50
2023/04/12 07:30:38;;;;;;;3.97;1.87;;;8.20;99.90;;;;;;5069880;28;20024;-50
2023/04/12 07:33:05;;;;;;;3.80;1.80;;;8.30;99.90;;;;;;5069985;28;20063;-52
2023/04/12 07:35:31;;;;;;;5.10;2.13;;;8.30;99.90;;;;;;5069772;28;20051;-53
2023/04/12 07:37:57;;;;;;;5.83;1.90;;;8.30;99.90;;;;;;5069668;28;20029;-53
2023/04/12 07:40:24;;;;;;;4.37;1.87;;;8.30;99.90;;;;;;5071643;28;20403;-50
2023/04/12 07:42:49;;;;;;;3.90;1.90;;;8.30;99.90;;;;;;5073435;28;20028;-53
2023/04/12 07:45:15;;;;;;;2.93;1.80;;;8.30;99.90;;;;;;5073096;28;20454;-53
2023/04/12 07:47:41;;;;;;;6.20;1.90;;;8.30;99.90;;;;;;5073254;28;20120;-52
2023/04/12 07:50:08;;;;;;;5.93;1.90;;;8.40;99.90;;;;;;5073130;28;20021;-50
2023/04/12 07:52:33;;;;;;;4.77;1.83;;;8.40;99.90;;;;;;5073196;28;20147;-53
2023/04/12 07:54:59;;;;;;;4.87;1.97;;;8.40;99.90;;;;;;5073422;28;20029;-53
2023/04/12 07:57:25;;;;;;;5.23;2.23;;;8.40;99.90;;;;;;5073145;28;20490;-52
2023/04/12 07:59:51;;;;;;;4.30;2.30;;;8.30;99.90;;;;;;5073081;28;20127;-50
2023/04/12 08:02:26;;;;;;;5.13;2.00;;;8.30;99.90;;;;;;5073222;28;20154;-52
2023/04/12 08:04:52;;;;;;;4.83;2.13;;;8.30;99.90;;;;;;5072693;28;20115;-49
2023/04/12 08:07:18;;;;;;;5.10;1.90;;;8.30;99.90;;;;;;5072968;28;20469;-50
2023/04/12 08:09:45;;;;;;;5.23;2.20;;;8.30;99.90;;;;;;5073073;28;20031;-52
2023/04/12 08:12:11;;;;;;;4.27;1.90;;;8.30;99.90;;;;;;5071926;28;20435;-50
2023/04/12 08:14:37;;;;;;;4.10;1.80;;;8.40;99.90;;;;;;5072824;28;20036;-53
2023/04/12 08:17:02;;;;;;;3.50;1.80;;;8.40;99.90;;;;;;5072743;28;20500;-53
2023/04/12 08:19:28;;;;;;;3.77;1.60;;;8.40;99.90;;;;;;5071492;28;20085;-52
2023/04/12 08:21:54;;;;;;;3.77;2.00;;;8.50;99.90;;;;;;5072641;28;20366;-50
2023/04/12 08:24:20;;;;;;;4.63;2.00;;;8.50;99.90;;;;;;5072466;28;20119;-50
2023/04/12 08:26:45;;;;;;;8.00;1.93;;;8.50;99.90;;;;;;5072288;28;20510;-52
2023/04/12 08:29:11;;;;;;;3.53;2.07;;;8.70;99.90;;;;;;5072891;28;20032;-52
2023/04/12 08:31:38;;;;;;;4.20;2.10;;;8.70;99.90;;;;;;5072801;28;20388;-50
2023/04/12 08:34:03;;;;;;;3.10;1.63;;;8.90;99.90;;;;;;5072314;28;20043;-49
2023/04/12 08:36:30;;;;;;;5.90;1.90;;;8.90;99.90;;;;;;5072392;28;20025;-51
2023/04/12 08:38:59;;;;;;;5.63;1.77;;;9.00;99.90;;;;;;5072461;28;20401;-52
2023/04/12 08:41:25;;;;;;;;;;;9.00;99.90;;;;;;5072945;28;20093;-51
2023/04/12 08:43:51;;;;;;;4.90;1.90;;;9.00;99.90;;;;;;5072317;28;19916;-49
2023/04/12 08:46:17;;;;;;;3.73;1.90;;;8.90;99.90;;;;;;5072289;28;20102;-50
2023/04/12 08:48:48;;;;;;;3.90;2.00;;;8.90;99.90;;;;;;5072134;28;20116;-49
2023/04/12 08:51:19;;;;;;;3.40;1.90;;;8.90;99.90;;;;;;5071540;28;20021;-49
2023/04/12 08:53:45;;;;;;;4.27;2.07;;;9.00;99.90;;;;;;5071900;28;20033;-48
2023/04/12 08:56:12;;;;;;;4.00;1.70;;;9.00;99.90;;;;;;5072169;28;20111;-50
2023/04/12 08:58:40;;;;;;;4.13;1.97;;;9.00;99.90;;;;;;5071882;28;20029;-52
2023/04/12 09:01:13;;;;;;;4.90;2.27;;;9.00;99.90;;;;;;5072195;28;20107;-50
2023/04/12 09:03:40;;;;;;;4.90;2.10;;;9.00;99.90;;;;;;5071716;28;20393;-52
2023/04/12 09:06:06;;;;;;;5.17;2.20;;;9.00;99.90;;;;;;5071959;28;20029;-49
2023/04/12 09:08:32;;;;;;;5.10;2.10;;;9.00;99.90;;;;;;5071533;28;20421;-51
2023/04/12 09:10:58;;;;;;;6.80;2.40;;;9.00;99.90;;;;;;5071933;28;20405;-50
2023/04/12 09:13:35;;;;;;;3.67;2.27;;;9.00;99.90;;;;;;5071471;28;20024;-50
2023/04/12 09:16:02;;;;;;;5.17;2.17;;;9.00;99.90;;;;;;5071902;28;20480;-50
2023/04/12 09:18:28;;;;;;;6.13;3.00;;;9.00;99.90;;;;;;5071617;28;20024;-51
2023/04/12 09:21:07;;;;;;;6.57;2.93;;;9.10;99.90;;;;;;5071439;28;20115;-50
2023/04/12 09:23:36;;;;;;;5.10;2.97;;;9.00;99.90;;;;;;5071255;28;20032;-53
2023/04/12 09:26:02;;;;;;;8.18;3.00;;;9.00;99.90;;;;;;5071675;28;20035;-52
2023/04/12 09:28:29;;;;;;;5.80;3.00;;;9.10;99.90;;;;;;5071437;28;20020;-50
2023/04/12 09:30:58;;;;;;;6.43;3.90;;;9.20;99.90;;;;;;5071468;28;20431;-50
2023/04/12 09:33:38;;;;;;;5.33;3.10;;;9.30;99.90;;;;;;5071179;28;20100;-50
2023/04/12 09:36:05;;;;;;;5.73;3.23;;;9.40;99.90;;;;;;5071593;28;20024;-48
2023/04/12 09:38:32;;;;;;;6.97;3.67;;;9.60;99.90;;;;;;5071209;28;20032;-48
2023/04/12 09:41:18;;;;;;;4.83;2.93;;;9.80;99.90;;;;;;5071351;28;20032;-49
2023/04/12 09:43:44;;;;;;;3.97;3.03;;;9.80;99.90;;;;;;5070894;28;20124;-51
2023/04/12 09:46:14;;;;;;;5.23;3.40;;;10.00;99.90;;;;;;5071091;28;20111;-51
2023/04/12 09:48:40;;;;;;;5.40;3.17;;;10.10;99.90;;;;;;5070997;28;20025;-50
2023/04/12 09:51:07;;;;;;;6.00;3.50;;;10.10;99.90;;;;;;5071067;28;20021;-53
2023/04/12 09:53:40;;;;;;;5.43;3.03;;;10.20;99.90;;;;;;5070890;28;20028;-48
2023/04/12 09:56:08;;;;;;;5.43;3.40;;;10.20;99.90;;;;;;5070990;28;20146;-50
2023/04/12 09:58:36;;;;;;;4.43;3.57;;;10.10;99.90;;;;;;5070695;28;20522;-52
2023/04/12 10:01:03;;;;;;;5.43;3.50;;;10.10;99.90;;;;;;5070983;28;20052;-52
2023/04/12 10:03:29;;;;;;;6.20;3.63;;;10.00;99.90;;;;;;5070540;28;20397;-52
2023/04/12 10:05:55;;;;;;;5.13;4.00;;;9.90;99.90;;;;;;5070862;28;20108;-50
2023/04/12 10:08:22;;;;;;;7.57;4.57;;;9.80;99.90;;;;;;5070630;28;20082;-49
2023/04/12 10:10:48;;;;;;;6.60;4.93;;;9.80;99.90;;;;;;5070892;28;20035;-49
2023/04/12 10:13:14;;;;;;;10.23;6.27;;;9.90;99.90;;;;;;5070711;28;20602;-48
2023/04/12 10:15:40;;;;;;;9.27;5.90;;;10.10;99.90;;;;;;5070476;28;20036;-50
2023/04/12 10:18:10;;;;;;;8.55;6.47;;;10.50;99.90;;;;;;5069167;28;20471;-51
2023/04/12 10:20:40;;;;;;;5.97;2.90;;;11.10;99.90;;;;;;5070673;28;20034;-48
2023/04/12 10:23:07;;;;;;;5.40;2.60;;;11.70;99.90;;;;;;5069272;28;20028;-50
2023/04/12 10:25:33;;;;;;;3.22;1.80;;;12.80;99.90;;;;;;5070267;28;20033;-49
2023/04/12 10:28:20;;;;;;;2.78;1.70;;;13.70;99.90;;;;;;5070302;28;20542;-50
2023/04/12 10:30:53;;;;;;;3.65;1.80;;;14.30;99.90;;;;;;5070410;28;20553;-52
2023/04/12 10:33:29;;;;;;;3.75;1.77;;;14.20;99.90;;;;;;5070328;28;20435;-49
2023/04/12 10:36:01;;;;;;;3.17;1.70;;;14.00;99.90;;;;;;5069261;28;20025;-50
2023/04/12 10:38:31;;;;;;;2.88;1.70;;;13.80;99.90;;;;;;5070233;28;20041;-51
2023/04/12 10:41:15;;;;;;;3.13;1.65;;;13.70;99.90;;;;;;5070650;28;20020;-51
2023/04/12 10:43:45;;;;;;;2.65;1.30;;;13.40;99.90;;;;;;5070110;28;20127;-50
2023/04/12 10:46:39;;;;;;;3.83;1.48;;;12.80;99.90;;;;;;5070447;28;20535;-50
2023/04/12 10:49:09;;;;;;;4.07;1.40;;;12.20;99.90;;;;;;5070262;28;20028;-51
2023/04/12 10:51:36;;;;;;;6.47;1.30;;;11.40;99.90;;;;;;5070457;28;20366;-51
2023/04/12 10:54:14;;;;;;;6.50;1.80;;;10.90;99.90;;;;;;5068720;28;20165;-53
2023/04/12 10:56:42;;;;;;;9.50;2.00;;;10.70;99.90;;;;;;5070201;28;20045;-51
2023/04/12 10:59:13;;;;;;;14.37;2.40;;;10.30;99.90;;;;;;5069007;28;20036;-53
2023/04/12 11:02:07;;;;;;;10.53;2.03;;;10.00;99.90;;;;;;5068884;28;20397;-52
2023/04/12 11:04:34;;;;;;;10.33;1.80;;;9.80;99.90;;;;;;5070098;28;20059;-53
2023/04/12 11:07:10;;;;;;;9.57;2.40;;;9.80;99.90;;;;;;5068696;28;20063;-49
2023/04/12 11:09:56;;;;;;;10.57;1.93;;;9.60;99.90;;;;;;5070415;28;20020;-50
2023/04/12 11:12:34;;;;;;;9.50;2.47;;;9.60;99.90;;;;;;5068840;28;20059;-48
2023/04/12 11:15:02;;;;;;;11.13;2.47;;;9.60;99.90;;;;;;5070363;28;20105;-52
2023/04/12 11:17:41;;;;;;;13.20;2.43;;;9.80;99.90;;;;;;5072628;28;20070;-52
2023/04/12 11:20:11;;;;;;;12.43;2.40;;;10.00;99.90;;;;;;5074219;28;20029;-52
2023/04/12 11:22:38;;;;;;;12.00;2.63;;;10.20;99.90;;;;;;5074027;28;20025;-51
2023/04/12 11:25:07;;;;;;;12.53;2.47;;;10.40;99.90;;;;;;5072652;28;20401;-50
2023/04/12 11:27:33;;;;;;;18.60;3.50;;;10.60;99.90;;;;;;5073955;28;20052;-49
2023/04/12 11:30:00;;;;;;;15.93;3.83;;;10.70;99.90;;;;;;5073914;28;20089;-51
2023/04/12 11:32:28;;;;;;;19.57;4.67;;;10.90;99.90;;;;;;5073870;28;20071;-51
2023/04/12 11:34:55;;;;;;;20.55;4.60;;;11.00;99.90;;;;;;5073934;28;20032;-52
2023/04/12 11:37:22;;;;;;;16.83;4.30;;;11.10;99.90;;;;;;5073897;28;20039;-50
2023/04/12 11:39:51;;;;;;;14.37;3.23;;;11.10;99.90;;;;;;5074264;28;20056;-52
2023/04/12 11:42:19;;;;;;;12.63;2.73;;;11.10;99.90;;;;;;5073831;28;20036;-49
2023/04/12 11:44:46;;;;;;;8.37;2.17;;;11.40;99.90;;;;;;5073469;28;20044;-51
2023/04/12 11:47:14;;;;;;;8.83;2.03;;;11.80;99.90;;;;;;5073755;28;20032;-49
2023/04/12 11:49:44;;;;;;;8.45;1.85;;;11.90;99.90;;;;;;5073766;28;20021;-50
2023/04/12 11:52:11;;;;;;;5.13;1.25;;;12.10;99.90;;;;;;5073783;28;20036;-51
2023/04/12 11:54:40;;;;;;;11.18;1.67;;;12.10;99.90;;;;;;5073468;28;20111;-50
2023/04/12 11:57:06;;;;;;;8.05;2.10;;;12.30;99.90;;;;;;5073923;28;20055;-51
2023/04/12 11:59:33;;;;;;;9.93;2.17;;;12.80;99.90;;;;;;5073418;28;20544;-51
2023/04/12 12:02:01;;;;;;;7.35;1.55;;;13.30;99.90;;;;;;5073487;28;20070;-50
2023/04/12 12:04:30;;;;;;;8.60;2.17;;;13.60;99.90;;;;;;5073288;28;20039;-51
2023/04/12 12:06:57;;;;;;;9.57;1.88;;;13.70;99.90;;;;;;5073289;28;20408;-50
2023/04/12 12:09:24;;;;;;;6.28;1.50;;;13.80;99.90;;;;;;5073376;28;20024;-51
2023/04/12 12:11:50;;;;;;;8.38;2.08;;;13.70;99.90;;;;;;5073175;28;20024;-52
2023/04/12 12:14:20;;;;;;;9.18;2.25;;;13.70;99.90;;;;;;5073210;28;20028;-53
2023/04/12 12:16:57;;;;;;;8.27;1.65;;;13.50;99.90;;;;;;5073046;28;20025;-51
2023/04/12 12:19:33;;;;;;;7.40;1.70;;;13.50;99.90;;;;;;5073163;28;20033;-51
2023/04/12 12:22:19;;;;;;;11.43;1.98;;;13.60;99.90;;;;;;5072960;28;20028;-51
2023/04/12 12:24:55;;;;;;;9.55;1.95;;;13.60;99.90;;;;;;5072859;28;20174;-52
2023/04/12 12:27:36;;;;;;;7.60;1.58;;;13.50;99.90;;;;;;5071533;28;20028;-53
2023/04/12 12:30:03;;;;;;;8.70;2.42;;;13.60;99.90;;;;;;5072894;28;20036;-52
2023/04/12 12:32:37;;;;;;;6.28;1.58;;;13.60;99.90;;;;;;5072937;28;20487;-48
2023/04/12 12:35:12;;;;;;;7.97;2.28;;;13.60;99.90;;;;;;5072727;28;20036;-49
2023/04/12 12:37:51;;;;;;;12.25;2.97;;;13.60;99.90;;;;;;5072574;28;20028;-48
2023/04/12 12:40:20;;;;;;;8.93;2.13;;;13.60;99.90;;;;;;5072963;28;20032;-50
2023/04/12 12:42:54;;;;;;;8.80;2.30;;;13.60;99.90;;;;;;5072675;28;20116;-52
2023/04/12 12:45:25;;;;;;;6.95;2.15;;;13.70;99.90;;;;;;5072431;28;20100;-50
2023/04/12 12:48:01;;;;;;;9.30;1.85;;;13.80;99.90;;;;;;5072747;28;20040;-51
2023/04/12 12:50:32;;;;;;;9.90;2.38;;;13.70;99.90;;;;;;5072705;28;20028;-51
2023/04/12 12:53:01;;;;;;;8.88;2.08;;;13.90;99.90;;;;;;5072475;28;20029;-48
2023/04/12 12:55:27;;;;;;;;;;;14.10;99.90;;;;;;5072811;28;20086;-52
2023/04/12 12:57:55;;;;;;;10.45;2.55;;;14.20;99.90;;;;;;5071796;28;20356;-49
2023/04/12 13:00:25;;;;;;;7.57;1.85;;;14.30;99.90;;;;;;5072497;28;20039;-50
2023/04/12 13:02:52;;;;;;;10.43;2.70;;;14.30;99.90;;;;;;5072350;28;20206;-50
2023/04/12 13:05:18;;;;;;;8.52;2.10;;;14.60;99.90;;;;;;5072097;28;20032;-52